sensor_id;sensor_type;location;lat;lon;timestamp;temperature;humidity
30069;DHT22;16894;49.456;10.644;2023-04-25T00:01:20;8.30;99.90
30069;DHT22;16894;49.456;10.644;2023-04-25T00:03:47;8.20;99.90
30069;DHT22;16894;49.456;10.644;2023-04-25T00:06:12;8.20;99.90
30069;DHT22;16894;49.456;10.644;2023-04-25T00:08:39;8.20;99.90
30069;DHT22;16894;49.456;10.644;2023-04-25T00:11:04;8.20;99.90
30069;DHT22;16894;49.456;10.644;2023-04-25T00:13:30;8.20;99.90
30069;DHT22;16894;49.456;10.644;2023-04-25T00:15:56;8.20;99.90
30069;DHT22;16894;49.456;10.644;2023-04-25T00:18:23;8.20;99.90
30069;DHT22;16894;49.456;10.644;2023-04-25T00:20:49;8.30;99.90
30069;DHT22;16894;49.456;10.644;2023-04-25T00:23:15;8.20;99.90
30069;DHT22;16894;49.456;10.644;2023-04-25T00:25:45;8.20;99.90
30069;DHT22;16894;49.456;10.644;2023-04-25T00:28:12;8.20;99.90
30069;DHT22;16894;49.456;10.644;2023-04-25T00:30:38;8.20;99.90
30069;DHT22;16894;49.456;10.644;2023-04-25T00:33:03;8.20;99.90
30069;DHT22;16894;49.456;10.644;2023-04-25T00:35:29;8.20;99.90
30069;DHT22;16894;49.456;10.644;2023-04-25T00:37:55;8.20;99.90
30069;DHT22;16894;49.456;10.644;2023-04-25T00:40:20;8.20;99.90
30069;DHT22;16894;49.456;10.644;2023-04-25T00:42:46;8.20;99.90
30069;DHT22;16894;49.456;10.644;2023-04-25T00:45:13;8.20;99.90
30069;DHT22;16894;49.456;10.644;2023-04-25T00:47:39;8.20;99.90
30069;DHT22;16894;49.456;10.644;2023-04-25T00:50:05;8.20;99.90
30069;DHT22;16894;49.456;10.644;2023-04-25T00:52:31;8.20;99.90
30069;DHT22;16894;49.456;10.644;2023-04-25T00:54:57;8.20;99.90
30069;DHT22;16894;49.456;10.644;2023-04-25T00:57:22;8.20;99.90
30069;DHT22;16894;49.456;10.644;2023-04-25T00:59:48;8.20;99.90
30069;DHT22;16894;49.456;10.644;2023-04-25T01:02:15;8.20;99.90
30069;DHT22;16894;49.456;10.644;2023-04-25T01:04:40;8.30;99.90
30069;DHT22;16894;49.456;10.644;2023-04-25T01:07:06;8.20;99.90
30069;DHT22;16894;49.456;10.644;2023-04-25T01:09:32;8.20;99.90
30069;DHT22;16894;49.456;10.644;2023-04-25T01:11:57;8.20;99.90
30069;DHT22;16894;49.456;10.644;2023-04-25T01:14:23;8.20;99.90
30069;DHT22;16894;49.456;10.644;2023-04-25T01:16:49;8.20;99.90
30069;DHT22;16894;49.456;10.644;2023-04-25T01:19:16;8.20;99.90
30069;DHT22;16894;49.456;10.644;2023-04-25T01:21:41;8.20;99.90
30069;DHT22;16894;49.456;10.644;2023-04-25T01:24:07;8.10;99.90
30069;DHT22;16894;49.456;10.644;2023-04-25T01:26:33;8.00;99.90
30069;DHT22;16894;49.456;10.644;2023-04-25T01:28:59;8.00;99.90
30069;DHT22;16894;49.456;10.644;2023-04-25T01:31:24;7.90;99.90
30069;DHT22;16894;49.456;10.644;2023-04-25T01:33:50;7.90;99.90
30069;DHT22;16894;49.456;10.644;2023-04-25T01:36:16;7.90;99.90
30069;DHT22;16894;49.456;10.644;2023-04-25T01:38:43;7.80;99.90
30069;DHT22;16894;49.456;10.644;2023-04-25T01:41:09;7.70;99.90
30069;DHT22;16894;49.456;10.644;2023-04-25T01:43:35;7.70;99.90
30069;DHT22;16894;49.456;10.644;2023-04-25T01:46:00;7.70;99.90
30069;DHT22;16894;49.456;10.644;2023-04-25T01:48:26;7.60;99.90
30069;DHT22;16894;49.456;10.644;2023-04-25T01:50:52;7.50;99.90
30069;DHT22;16894;49.456;10.644;2023-04-25T01:53:18;7.50;99.90
30069;DHT22;16894;49.456;10.644;2023-04-25T01:55:43;7.50;99.90
30069;DHT22;16894;49.456;10.644;2023-04-25T01:58:09;7.40;99.90
30069;DHT22;16894;49.456;10.644;2023-04-25T02:00:37;7.30;99.90
30069;DHT22;16894;49.456;10.644;2023-04-25T02:03:04;7.20;99.90
30069;DHT22;16894;49.456;10.644;2023-04-25T02:05:34;7.10;99.90
30069;DHT22;16894;49.456;10.644;2023-04-25T02:07:59;7.10;99.90
30069;DHT22;16894;49.456;10.644;2023-04-25T02:10:25;7.10;99.90
30069;DHT22;16894;49.456;10.644;2023-04-25T02:12:50;7.10;99.90
30069;DHT22;16894;49.456;10.644;2023-04-25T02:15:16;7.10;99.90
30069;DHT22;16894;49.456;10.644;2023-04-25T02:17:41;7.10;99.90
30069;DHT22;16894;49.456;10.644;2023-04-25T02:20:07;7.00;99.90
30069;DHT22;16894;49.456;10.644;2023-04-25T02:22:32;6.80;99.90
30069;DHT22;16894;49.456;10.644;2023-04-25T02:24:59;6.70;99.90
30069;DHT22;16894;49.456;10.644;2023-04-25T02:27:25;6.70;99.90
30069;DHT22;16894;49.456;10.644;2023-04-25T02:29:50;6.60;99.90
30069;DHT22;16894;49.456;10.644;2023-04-25T02:32:16;6.60;99.90
30069;DHT22;16894;49.456;10.644;2023-04-25T02:34:41;6.60;99.90
30069;DHT22;16894;49.456;10.644;2023-04-25T02:37:07;6.50;99.90
30069;DHT22;16894;49.456;10.644;2023-04-25T02:39:32;6.50;99.90
30069;DHT22;16894;49.456;10.644;2023-04-25T02:41:58;6.50;99.90
30069;DHT22;16894;49.456;10.644;2023-04-25T02:44:23;6.40;99.90
30069;DHT22;16894;49.456;10.644;2023-04-25T02:46:49;6.40;99.90
30069;DHT22;16894;49.456;10.644;2023-04-25T02:49:14;6.40;99.90
30069;DHT22;16894;49.456;10.644;2023-04-25T02:51:40;6.40;99.90
30069;DHT22;16894;49.456;10.644;2023-04-25T02:54:05;6.40;99.90
30069;DHT22;16894;49.456;10.644;2023-04-25T02:56:31;6.30;99.90
30069;DHT22;16894;49.456;10.644;2023-04-25T02:58:57;6.40;99.90
30069;DHT22;16894;49.456;10.644;2023-04-25T03:01:22;6.30;99.90
30069;DHT22;16894;49.456;10.644;2023-04-25T03:03:50;6.30;99.90
30069;DHT22;16894;49.456;10.644;2023-04-25T03:06:16;6.30;99.90
30069;DHT22;16894;49.456;10.644;2023-04-25T03:08:41;6.30;99.90
30069;DHT22;16894;49.456;10.644;2023-04-25T03:11:08;6.30;99.90
30069;DHT22;16894;49.456;10.644;2023-04-25T03:13:33;6.20;99.90
30069;DHT22;16894;49.456;10.644;2023-04-25T03:15:59;6.30;99.90
30069;DHT22;16894;49.456;10.644;2023-04-25T03:18:24;6.30;99.90
30069;DHT22;16894;49.456;10.644;2023-04-25T03:20:50;6.30;99.90
30069;DHT22;16894;49.456;10.644;2023-04-25T03:23:16;6.40;99.90
30069;DHT22;16894;49.456;10.644;2023-04-25T03:25:41;6.40;99.90
30069;DHT22;16894;49.456;10.644;2023-04-25T03:28:07;6.40;99.90
30069;DHT22;16894;49.456;10.644;2023-04-25T03:30:33;6.40;99.90
30069;DHT22;16894;49.456;10.644;2023-04-25T03:32:58;6.50;99.90
30069;DHT22;16894;49.456;10.644;2023-04-25T03:35:24;6.50;99.90
30069;DHT22;16894;49.456;10.644;2023-04-25T03:37:50;6.50;99.90
30069;DHT22;16894;49.456;10.644;2023-04-25T03:40:15;6.60;99.90
30069;DHT22;16894;49.456;10.644;2023-04-25T03:42:41;6.60;99.90
30069;DHT22;16894;49.456;10.644;2023-04-25T03:45:07;6.70;99.90
30069;DHT22;16894;49.456;10.644;2023-04-25T03:47:32;6.70;99.90
30069;DHT22;16894;49.456;10.644;2023-04-25T03:49:58;6.80;99.90
30069;DHT22;16894;49.456;10.644;2023-04-25T03:52:25;6.80;99.90
30069;DHT22;16894;49.456;10.644;2023-04-25T03:54:51;6.90;99.90
30069;DHT22;16894;49.456;10.644;2023-04-25T03:57:16;6.90;99.90
30069;DHT22;16894;49.456;10.644;2023-04-25T03:59:42;7.00;99.90
30069;DHT22;16894;49.456;10.644;2023-04-25T04:02:07;7.00;99.90
30069;DHT22;16894;49.456;10.644;2023-04-25T04:04:33;7.00;99.90
30069;DHT22;16894;49.456;10.644;2023-04-25T04:06:58;7.00;99.90
30069;DHT22;16894;49.456;10.644;2023-04-25T04:09:24;7.00;99.90
30069;DHT22;16894;49.456;10.644;2023-04-25T04:11:50;7.00;99.90
30069;DHT22;16894;49.456;10.644;2023-04-25T04:14:15;7.00;99.90
30069;DHT22;16894;49.456;10.644;2023-04-25T04:16:41;7.00;99.90
30069;DHT22;16894;49.456;10.644;2023-04-25T04:19:07;7.10;99.90
30069;DHT22;16894;49.456;10.644;2023-04-25T04:21:32;7.10;99.90
30069;DHT22;16894;49.456;10.644;2023-04-25T04:23:58;7.10;99.90
30069;DHT22;16894;49.456;10.644;2023-04-25T04:26:25;7.10;99.90
30069;DHT22;16894;49.456;10.644;2023-04-25T04:28:51;7.20;99.90
30069;DHT22;16894;49.456;10.644;2023-04-25T04:31:17;7.20;99.90
30069;DHT22;16894;49.456;10.644;2023-04-25T04:33:45;7.30;99.90
30069;DHT22;16894;49.456;10.644;2023-04-25T04:36:11;7.30;99.90
30069;DHT22;16894;49.456;10.644;2023-04-25T04:38:36;7.30;99.90
30069;DHT22;16894;49.456;10.644;2023-04-25T04:41:02;7.30;99.90
30069;DHT22;16894;49.456;10.644;2023-04-25T04:43:28;7.40;99.90
30069;DHT22;16894;49.456;10.644;2023-04-25T04:45:55;7.40;99.90
30069;DHT22;16894;49.456;10.644;2023-04-25T04:48:23;7.30;99.90
30069;DHT22;16894;49.456;10.644;2023-04-25T04:50:49;7.40;99.90
30069;DHT22;16894;49.456;10.644;2023-04-25T04:53:14;7.40;99.90
30069;DHT22;16894;49.456;10.644;2023-04-25T04:55:40;7.40;99.90
30069;DHT22;16894;49.456;10.644;2023-04-25T04:58:06;7.40;99.90
30069;DHT22;16894;49.456;10.644;2023-04-25T05:00:32;7.40;99.90
30069;DHT22;16894;49.456;10.644;2023-04-25T05:02:58;7.50;99.90
30069;DHT22;16894;49.456;10.644;2023-04-25T05:05:25;7.50;99.90
30069;DHT22;16894;49.456;10.644;2023-04-25T05:07:50;7.50;99.90
30069;DHT22;16894;49.456;10.644;2023-04-25T05:10:19;7.40;99.90
30069;DHT22;16894;49.456;10.644;2023-04-25T05:12:45;7.40;99.90
30069;DHT22;16894;49.456;10.644;2023-04-25T05:15:11;7.50;99.90
30069;DHT22;16894;49.456;10.644;2023-04-25T05:17:37;7.60;99.90
30069;DHT22;16894;49.456;10.644;2023-04-25T05:20:02;7.60;99.90
30069;DHT22;16894;49.456;10.644;2023-04-25T05:22:29;7.60;99.90
30069;DHT22;16894;49.456;10.644;2023-04-25T05:24:54;7.60;99.90
30069;DHT22;16894;49.456;10.644;2023-04-25T05:27:20;7.60;99.90
30069;DHT22;16894;49.456;10.644;2023-04-25T05:29:45;7.60;99.90
30069;DHT22;16894;49.456;10.644;2023-04-25T05:32:11;7.70;99.90
30069;DHT22;16894;49.456;10.644;2023-04-25T05:34:36;7.60;99.90
30069;DHT22;16894;49.456;10.644;2023-04-25T05:37:02;7.60;99.90
30069;DHT22;16894;49.456;10.644;2023-04-25T05:39:28;7.60;99.90
30069;DHT22;16894;49.456;10.644;2023-04-25T05:41:53;7.60;99.90
30069;DHT22;16894;49.456;10.644;2023-04-25T05:44:19;7.60;99.90
30069;DHT22;16894;49.456;10.644;2023-04-25T05:46:45;7.60;99.90
30069;DHT22;16894;49.456;10.644;2023-04-25T05:49:10;7.60;99.90
30069;DHT22;16894;49.456;10.644;2023-04-25T05:51:36;7.60;99.90
30069;DHT22;16894;49.456;10.644;2023-04-25T05:54:01;7.60;99.90
30069;DHT22;16894;49.456;10.644;2023-04-25T05:56:27;7.60;99.90
30069;DHT22;16894;49.456;10.644;2023-04-25T05:58:52;7.60;99.90
30069;DHT22;16894;49.456;10.644;2023-04-25T06:01:18;7.60;99.90
30069;DHT22;16894;49.456;10.644;2023-04-25T06:03:44;7.50;99.90
30069;DHT22;16894;49.456;10.644;2023-04-25T06:06:11;7.50;99.90
30069;DHT22;16894;49.456;10.644;2023-04-25T06:08:36;7.50;99.90
30069;DHT22;16894;49.456;10.644;2023-04-25T06:11:03;7.50;99.90
30069;DHT22;16894;49.456;10.644;2023-04-25T06:13:28;7.50;99.90
30069;DHT22;16894;49.456;10.644;2023-04-25T06:15:54;7.60;99.90
30069;DHT22;16894;49.456;10.644;2023-04-25T06:18:19;7.60;99.90
30069;DHT22;16894;49.456;10.644;2023-04-25T06:20:45;7.60;99.90
30069;DHT22;16894;49.456;10.644;2023-04-25T06:23:10;7.50;99.90
30069;DHT22;16894;49.456;10.644;2023-04-25T06:25:36;7.40;99.90
30069;DHT22;16894;49.456;10.644;2023-04-25T06:28:01;7.40;99.90
30069;DHT22;16894;49.456;10.644;2023-04-25T06:30:27;7.30;99.90
30069;DHT22;16894;49.456;10.644;2023-04-25T06:32:52;7.10;99.90
30069;DHT22;16894;49.456;10.644;2023-04-25T06:35:18;7.00;99.90
30069;DHT22;16894;49.456;10.644;2023-04-25T06:37:44;7.00;99.90
30069;DHT22;16894;49.456;10.644;2023-04-25T06:40:10;6.90;99.90
30069;DHT22;16894;49.456;10.644;2023-04-25T06:42:36;6.80;99.90
30069;DHT22;16894;49.456;10.644;2023-04-25T06:45:01;6.80;99.90
30069;DHT22;16894;49.456;10.644;2023-04-25T06:47:27;6.70;99.90
30069;DHT22;16894;49.456;10.644;2023-04-25T06:49:53;6.70;99.90
30069;DHT22;16894;49.456;10.644;2023-04-25T06:52:18;6.70;99.90
30069;DHT22;16894;49.456;10.644;2023-04-25T06:54:44;6.70;99.90
30069;DHT22;16894;49.456;10.644;2023-04-25T06:57:10;6.70;99.90
30069;DHT22;16894;49.456;10.644;2023-04-25T06:59:35;6.80;99.90
30069;DHT22;16894;49.456;10.644;2023-04-25T07:02:01;6.70;99.90
30069;DHT22;16894;49.456;10.644;2023-04-25T07:04:27;6.80;99.90
30069;DHT22;16894;49.456;10.644;2023-04-25T07:06:52;6.90;99.90
30069;DHT22;16894;49.456;10.644;2023-04-25T07:09:18;7.00;99.90
30069;DHT22;16894;49.456;10.644;2023-04-25T07:11:43;7.10;99.90
30069;DHT22;16894;49.456;10.644;2023-04-25T07:14:09;7.00;99.90
30069;DHT22;16894;49.456;10.644;2023-04-25T07:16:34;7.00;99.90
30069;DHT22;16894;49.456;10.644;2023-04-25T07:19:00;7.00;99.90
30069;DHT22;16894;49.456;10.644;2023-04-25T07:21:25;6.90;99.90
30069;DHT22;16894;49.456;10.644;2023-04-25T07:23:51;6.90;99.90
30069;DHT22;16894;49.456;10.644;2023-04-25T07:26:17;6.80;99.90
30069;DHT22;16894;49.456;10.644;2023-04-25T07:28:42;6.80;99.90
30069;DHT22;16894;49.456;10.644;2023-04-25T07:31:08;6.80;99.90
30069;DHT22;16894;49.456;10.644;2023-04-25T07:33:34;6.90;99.90
30069;DHT22;16894;49.456;10.644;2023-04-25T07:36:00;6.90;99.90
30069;DHT22;16894;49.456;10.644;2023-04-25T07:38:25;7.00;99.90
30069;DHT22;16894;49.456;10.644;2023-04-25T07:40:51;7.00;99.90
30069;DHT22;16894;49.456;10.644;2023-04-25T07:43:16;7.00;99.90
30069;DHT22;16894;49.456;10.644;2023-04-25T07:45:42;7.10;99.90
30069;DHT22;16894;49.456;10.644;2023-04-25T07:48:08;7.10;99.90
30069;DHT22;16894;49.456;10.644;2023-04-25T07:50:34;7.30;99.90
30069;DHT22;16894;49.456;10.644;2023-04-25T07:53:00;7.50;99.90
30069;DHT22;16894;49.456;10.644;2023-04-25T07:55:25;7.60;99.90
30069;DHT22;16894;49.456;10.644;2023-04-25T07:57:51;7.70;99.90
30069;DHT22;16894;49.456;10.644;2023-04-25T08:00:17;7.70;99.90
30069;DHT22;16894;49.456;10.644;2023-04-25T08:02:42;7.90;99.90
30069;DHT22;16894;49.456;10.644;2023-04-25T08:05:08;8.00;99.90
30069;DHT22;16894;49.456;10.644;2023-04-25T08:07:37;8.20;99.90
30069;DHT22;16894;49.456;10.644;2023-04-25T08:10:03;8.30;99.90
30069;DHT22;16894;49.456;10.644;2023-04-25T08:12:28;8.50;99.90
30069;DHT22;16894;49.456;10.644;2023-04-25T08:14:54;8.70;99.90
30069;DHT22;16894;49.456;10.644;2023-04-25T08:17:19;9.00;99.90
30069;DHT22;16894;49.456;10.644;2023-04-25T08:19:45;9.40;99.90
30069;DHT22;16894;49.456;10.644;2023-04-25T08:22:10;9.70;99.90
30069;DHT22;16894;49.456;10.644;2023-04-25T08:24:36;10.20;99.90
30069;DHT22;16894;49.456;10.644;2023-04-25T08:27:01;10.60;99.90
30069;DHT22;16894;49.456;10.644;2023-04-25T08:29:27;10.90;99.90
30069;DHT22;16894;49.456;10.644;2023-04-25T08:31:53;10.90;99.90
30069;DHT22;16894;49.456;10.644;2023-04-25T08:34:19;10.80;99.90
30069;DHT22;16894;49.456;10.644;2023-04-25T08:36:45;10.80;99.90
30069;DHT22;16894;49.456;10.644;2023-04-25T08:39:11;10.90;99.90
30069;DHT22;16894;49.456;10.644;2023-04-25T08:41:37;11.10;99.90
30069;DHT22;16894;49.456;10.644;2023-04-25T08:44:03;10.90;99.90
30069;DHT22;16894;49.456;10.644;2023-04-25T08:46:28;11.00;99.90
30069;DHT22;16894;49.456;10.644;2023-04-25T08:48:57;11.20;99.90
30069;DHT22;16894;49.456;10.644;2023-04-25T08:51:25;11.10;99.90
30069;DHT22;16894;49.456;10.644;2023-04-25T08:53:51;11.50;99.90
30069;DHT22;16894;49.456;10.644;2023-04-25T08:56:17;11.80;99.90
30069;DHT22;16894;49.456;10.644;2023-04-25T08:58:47;11.90;99.90
30069;DHT22;16894;49.456;10.644;2023-04-25T09:01:13;11.70;99.90
30069;DHT22;16894;49.456;10.644;2023-04-25T09:03:38;11.60;99.90
30069;DHT22;16894;49.456;10.644;2023-04-25T09:06:04;11.50;99.90
30069;DHT22;16894;49.456;10.644;2023-04-25T09:08:29;11.50;99.90
30069;DHT22;16894;49.456;10.644;2023-04-25T09:10:55;11.30;99.90
30069;DHT22;16894;49.456;10.644;2023-04-25T09:13:25;11.20;99.90
30069;DHT22;16894;49.456;10.644;2023-04-25T09:15:56;11.40;99.90
30069;DHT22;16894;49.456;10.644;2023-04-25T09:18:25;11.60;99.90
30069;DHT22;16894;49.456;10.644;2023-04-25T09:20:52;11.60;99.90
30069;DHT22;16894;49.456;10.644;2023-04-25T09:23:18;12.10;99.90
30069;DHT22;16894;49.456;10.644;2023-04-25T09:25:45;12.40;99.90
30069;DHT22;16894;49.456;10.644;2023-04-25T09:28:12;13.00;99.90
30069;DHT22;16894;49.456;10.644;2023-04-25T09:30:37;13.20;98.00
30069;DHT22;16894;49.456;10.644;2023-04-25T09:33:06;13.40;97.10
30069;DHT22;16894;49.456;10.644;2023-04-25T09:35:51;13.40;95.70
30069;DHT22;16894;49.456;10.644;2023-04-25T09:38:20;13.60;96.50
30069;DHT22;16894;49.456;10.644;2023-04-25T09:40:46;14.10;94.90
30069;DHT22;16894;49.456;10.644;2023-04-25T09:43:19;14.80;95.50
30069;DHT22;16894;49.456;10.644;2023-04-25T09:45:46;15.50;94.60
30069;DHT22;16894;49.456;10.644;2023-04-25T09:48:18;14.50;93.80
30069;DHT22;16894;49.456;10.644;2023-04-25T09:50:45;14.20;95.00
30069;DHT22;16894;49.456;10.644;2023-04-25T09:53:12;14.50;93.10
30069;DHT22;16894;49.456;10.644;2023-04-25T09:55:37;14.70;91.20
30069;DHT22;16894;49.456;10.644;2023-04-25T09:58:06;14.10;93.50
30069;DHT22;16894;49.456;10.644;2023-04-25T10:00:33;13.50;93.00
30069;DHT22;16894;49.456;10.644;2023-04-25T10:03:00;13.20;94.90
30069;DHT22;16894;49.456;10.644;2023-04-25T10:05:26;12.80;95.20
30069;DHT22;16894;49.456;10.644;2023-04-25T10:07:52;12.70;93.80
30069;DHT22;16894;49.456;10.644;2023-04-25T10:10:18;12.40;94.60
30069;DHT22;16894;49.456;10.644;2023-04-25T10:12:45;12.50;95.20
30069;DHT22;16894;49.456;10.644;2023-04-25T10:15:10;13.40;95.10
30069;DHT22;16894;49.456;10.644;2023-04-25T10:17:36;13.80;92.00
30069;DHT22;16894;49.456;10.644;2023-04-25T10:20:02;13.70;92.10
30069;DHT22;16894;49.456;10.644;2023-04-25T10:22:32;13.30;91.50
30069;DHT22;16894;49.456;10.644;2023-04-25T10:24:59;13.20;92.30
30069;DHT22;16894;49.456;10.644;2023-04-25T10:27:27;13.10;92.70
30069;DHT22;16894;49.456;10.644;2023-04-25T10:30:13;13.10;92.70
30069;DHT22;16894;49.456;10.644;2023-04-25T10:32:43;13.20;93.40
30069;DHT22;16894;49.456;10.644;2023-04-25T10:35:17;13.40;92.70
30069;DHT22;16894;49.456;10.644;2023-04-25T10:40:28;13.80;92.20
30069;DHT22;16894;49.456;10.644;2023-04-25T10:42:55;13.90;91.90
30069;DHT22;16894;49.456;10.644;2023-04-25T10:45:21;13.40;92.70
30069;DHT22;16894;49.456;10.644;2023-04-25T10:47:47;13.00;92.80
30069;DHT22;16894;49.456;10.644;2023-04-25T10:50:16;12.80;94.00
30069;DHT22;16894;49.456;10.644;2023-04-25T10:52:42;12.70;93.60
30069;DHT22;16894;49.456;10.644;2023-04-25T10:55:07;12.60;93.00
30069;DHT22;16894;49.456;10.644;2023-04-25T10:57:37;12.70;93.00
30069;DHT22;16894;49.456;10.644;2023-04-25T11:00:07;12.90;92.90
30069;DHT22;16894;49.456;10.644;2023-04-25T11:07:56;12.40;92.90
30069;DHT22;16894;49.456;10.644;2023-04-25T11:10:26;12.10;92.70
30069;DHT22;16894;49.456;10.644;2023-04-25T11:12:52;12.10;92.30
30069;DHT22;16894;49.456;10.644;2023-04-25T11:15:17;12.10;93.60
30069;DHT22;16894;49.456;10.644;2023-04-25T11:17:43;12.20;94.10
30069;DHT22;16894;49.456;10.644;2023-04-25T11:20:11;12.30;93.60
30069;DHT22;16894;49.456;10.644;2023-04-25T11:22:40;12.30;93.50
30069;DHT22;16894;49.456;10.644;2023-04-25T11:25:09;12.30;93.10
30069;DHT22;16894;49.456;10.644;2023-04-25T11:27:37;12.50;93.40
30069;DHT22;16894;49.456;10.644;2023-04-25T11:30:12;12.40;93.10
30069;DHT22;16894;49.456;10.644;2023-04-25T11:32:39;12.30;93.50
30069;DHT22;16894;49.456;10.644;2023-04-25T11:35:05;12.50;93.20
30069;DHT22;16894;49.456;10.644;2023-04-25T11:37:31;12.80;92.30
30069;DHT22;16894;49.456;10.644;2023-04-25T11:39:56;12.90;92.80
30069;DHT22;16894;49.456;10.644;2023-04-25T11:42:22;12.90;92.80
30069;DHT22;16894;49.456;10.644;2023-04-25T11:44:47;13.00;92.50
30069;DHT22;16894;49.456;10.644;2023-04-25T11:47:13;12.90;93.50
30069;DHT22;16894;49.456;10.644;2023-04-25T11:49:38;12.80;93.40
30069;DHT22;16894;49.456;10.644;2023-04-25T11:52:06;12.70;92.60
30069;DHT22;16894;49.456;10.644;2023-04-25T11:54:34;12.50;92.20
30069;DHT22;16894;49.456;10.644;2023-04-25T11:57:00;12.50;92.60
30069;DHT22;16894;49.456;10.644;2023-04-25T11:59:26;12.20;93.20
30069;DHT22;16894;49.456;10.644;2023-04-25T12:01:52;12.10;93.00
30069;DHT22;16894;49.456;10.644;2023-04-25T12:04:22;11.70;93.30
30069;DHT22;16894;49.456;10.644;2023-04-25T12:06:48;11.40;93.90
30069;DHT22;16894;49.456;10.644;2023-04-25T12:09:15;11.30;94.50
30069;DHT22;16894;49.456;10.644;2023-04-25T12:11:43;11.20;95.00
30069;DHT22;16894;49.456;10.644;2023-04-25T12:14:10;11.40;95.20
30069;DHT22;16894;49.456;10.644;2023-04-25T12:16:40;11.70;95.10
30069;DHT22;16894;49.456;10.644;2023-04-25T12:19:06;11.90;94.70
30069;DHT22;16894;49.456;10.644;2023-04-25T12:21:33;11.80;93.90
30069;DHT22;16894;49.456;10.644;2023-04-25T12:29:19;11.90;93.70
30069;DHT22;16894;49.456;10.644;2023-04-25T12:31:45;11.80;94.30
30069;DHT22;16894;49.456;10.644;2023-04-25T12:34:11;11.80;94.40
30069;DHT22;16894;49.456;10.644;2023-04-25T12:36:36;11.90;94.20
30069;DHT22;16894;49.456;10.644;2023-04-25T12:39:02;12.70;95.00
30069;DHT22;16894;49.456;10.644;2023-04-25T12:41:29;13.60;92.80
30069;DHT22;16894;49.456;10.644;2023-04-25T12:43:55;13.70;91.30
30069;DHT22;16894;49.456;10.644;2023-04-25T12:46:20;13.40;90.80
30069;DHT22;16894;49.456;10.644;2023-04-25T12:48:48;13.10;91.90
30069;DHT22;16894;49.456;10.644;2023-04-25T12:51:14;12.80;91.40
30069;DHT22;16894;49.456;10.644;2023-04-25T12:53:40;12.40;91.50
30069;DHT22;16894;49.456;10.644;2023-04-25T12:56:12;12.10;91.80
30069;DHT22;16894;49.456;10.644;2023-04-25T12:58:38;12.10;91.90
30069;DHT22;16894;49.456;10.644;2023-04-25T13:01:03;12.10;91.90
30069;DHT22;16894;49.456;10.644;2023-04-25T13:03:29;11.70;92.40
30069;DHT22;16894;49.456;10.644;2023-04-25T13:05:54;11.70;91.90
30069;DHT22;16894;49.456;10.644;2023-04-25T13:08:20;11.80;91.90
30069;DHT22;16894;49.456;10.644;2023-04-25T13:10:47;12.00;92.10
30069;DHT22;16894;49.456;10.644;2023-04-25T13:13:12;11.90;91.30
30069;DHT22;16894;49.456;10.644;2023-04-25T13:15:38;11.90;91.70
30069;DHT22;16894;49.456;10.644;2023-04-25T13:18:04;12.00;91.70
30069;DHT22;16894;49.456;10.644;2023-04-25T13:20:30;12.10;92.60
30069;DHT22;16894;49.456;10.644;2023-04-25T13:22:56;12.30;92.20
30069;DHT22;16894;49.456;10.644;2023-04-25T13:25:22;12.50;91.70
30069;DHT22;16894;49.456;10.644;2023-04-25T13:27:47;12.40;91.30
30069;DHT22;16894;49.456;10.644;2023-04-25T13:30:13;12.10;92.00
30069;DHT22;16894;49.456;10.644;2023-04-25T13:32:39;12.00;91.70
30069;DHT22;16894;49.456;10.644;2023-04-25T13:35:05;11.80;91.80
30069;DHT22;16894;49.456;10.644;2023-04-25T13:37:31;11.90;92.30
30069;DHT22;16894;49.456;10.644;2023-04-25T13:40:01;12.00;92.00
30069;DHT22;16894;49.456;10.644;2023-04-25T13:42:29;12.10;91.90
30069;DHT22;16894;49.456;10.644;2023-04-25T13:44:54;12.00;91.50
30069;DHT22;16894;49.456;10.644;2023-04-25T13:47:20;12.00;91.90
30069;DHT22;16894;49.456;10.644;2023-04-25T13:49:45;11.90;91.00
30069;DHT22;16894;49.456;10.644;2023-04-25T13:52:11;11.80;91.60
30069;DHT22;16894;49.456;10.644;2023-04-25T13:54:36;11.70;92.60
30069;DHT22;16894;49.456;10.644;2023-04-25T13:57:02;11.60;91.80
30069;DHT22;16894;49.456;10.644;2023-04-25T13:59:28;11.70;91.70
30069;DHT22;16894;49.456;10.644;2023-04-25T14:01:53;11.80;92.10
30069;DHT22;16894;49.456;10.644;2023-04-25T14:04:19;11.60;91.80
30069;DHT22;16894;49.456;10.644;2023-04-25T14:06:44;11.50;91.30
30069;DHT22;16894;49.456;10.644;2023-04-25T14:09:10;11.50;91.90
30069;DHT22;16894;49.456;10.644;2023-04-25T14:11:37;11.50;92.60
30069;DHT22;16894;49.456;10.644;2023-04-25T14:14:02;11.40;91.70
30069;DHT22;16894;49.456;10.644;2023-04-25T14:16:29;11.20;91.90
30069;DHT22;16894;49.456;10.644;2023-04-25T14:18:55;11.20;92.10
30069;DHT22;16894;49.456;10.644;2023-04-25T14:21:21;11.20;92.90
30069;DHT22;16894;49.456;10.644;2023-04-25T14:23:46;11.30;92.80
30069;DHT22;16894;49.456;10.644;2023-04-25T14:26:12;11.20;93.10
30069;DHT22;16894;49.456;10.644;2023-04-25T14:28:38;11.20;93.00
30069;DHT22;16894;49.456;10.644;2023-04-25T14:31:04;11.30;93.30
30069;DHT22;16894;49.456;10.644;2023-04-25T14:33:29;11.20;92.90
30069;DHT22;16894;49.456;10.644;2023-04-25T14:35:55;11.30;93.30
30069;DHT22;16894;49.456;10.644;2023-04-25T14:38:21;11.40;92.70
30069;DHT22;16894;49.456;10.644;2023-04-25T14:40:49;11.40;92.90
30069;DHT22;16894;49.456;10.644;2023-04-25T14:43:14;11.50;93.20
30069;DHT22;16894;49.456;10.644;2023-04-25T14:45:40;11.80;92.40
30069;DHT22;16894;49.456;10.644;2023-04-25T14:48:05;12.20;91.70
30069;DHT22;16894;49.456;10.644;2023-04-25T14:50:32;12.20;91.40
30069;DHT22;16894;49.456;10.644;2023-04-25T14:52:57;12.10;91.90
30069;DHT22;16894;49.456;10.644;2023-04-25T14:55:24;12.00;91.70
30069;DHT22;16894;49.456;10.644;2023-04-25T14:57:50;12.00;92.40
30069;DHT22;16894;49.456;10.644;2023-04-25T15:00:15;11.90;92.70
30069;DHT22;16894;49.456;10.644;2023-04-25T15:02:41;12.00;91.80
30069;DHT22;16894;49.456;10.644;2023-04-25T15:05:07;12.00;92.40
30069;DHT22;16894;49.456;10.644;2023-04-25T15:07:36;12.00;92.00
30069;DHT22;16894;49.456;10.644;2023-04-25T15:10:02;12.00;92.90
30069;DHT22;16894;49.456;10.644;2023-04-25T15:12:28;11.90;94.00
30069;DHT22;16894;49.456;10.644;2023-04-25T15:14:53;12.00;94.10
30069;DHT22;16894;49.456;10.644;2023-04-25T15:17:19;11.90;94.10
30069;DHT22;16894;49.456;10.644;2023-04-25T15:19:44;11.70;94.00
30069;DHT22;16894;49.456;10.644;2023-04-25T15:22:10;11.60;94.60
30069;DHT22;16894;49.456;10.644;2023-04-25T15:24:36;11.80;94.60
30069;DHT22;16894;49.456;10.644;2023-04-25T15:27:02;11.80;93.70
30069;DHT22;16894;49.456;10.644;2023-04-25T15:29:29;11.70;94.30
30069;DHT22;16894;49.456;10.644;2023-04-25T15:31:55;11.70;94.20